METAR Data
IDs: Format: Raw Decoded Include TAF

Data at: 2223 UTC 25 Oct 2021

KIAH 252153Z 15005KT 10SM FEW040 31/22 A2990 RMK AO2 SLP124 T03110217
KIAH 252053Z 00000KT 10SM SCT040 31/21 A2991 RMK AO2 SLP126 T03060211 56018
KIAH 251953Z 00000KT 10SM SCT035 31/21 A2992 RMK AO2 SLP129 T03110211
KIAH 251853Z 33005KT 10SM SCT035 31/22 A2993 RMK AO2 SLP135 T03110222
KIAH 251753Z VRB04KT 10SM SCT030 31/22 A2996 RMK AO2 SLP144 T03110222 10311 20244 58008
KIAH 251653Z 00000KT 10SM SCT025 29/22 A2998 RMK AO2 SLP149 T02940222
KIAH 251553Z 27005KT 10SM BKN020 28/22 A2998 RMK AO2 SLP151 T02830222
KIAH 251453Z 23005KT 10SM BKN016 27/23 A2998 RMK AO2 SLP153 T02670228 51019
KIAH 251423Z 00000KT 10SM SCT012 BKN021 26/23 A2998 RMK AO2 T02610233
KIAH 251353Z 00000KT 7SM BKN012 BKN021 26/23 A2997 RMK AO2 SLP149 T02610233
KIAH 251329Z 00000KT 7SM BKN010 BKN020 26/24 A2996 RMK AO2 T02560239
KIAH 251253Z 00000KT 7SM FEW008 BKN017 25/23 A2995 RMK AO2 SLP142 T02500228
KIAH 251153Z 25005KT 10SM SCT008 BKN018 24/23 A2993 RMK AO2 SLP134 T02440228 10244 20228 53009
KIAH 251138Z 00000KT 10SM SCT008 BKN016 24/23 A2993 RMK AO2 T02440228
KIAH 251053Z 00000KT 7SM BKN009 24/23 A2991 RMK AO2 SLP130 T02440228
KIAH 250953Z 00000KT 7SM BKN008 24/23 A2990 RMK AO2 SLP125 T02440228
KIAH 250853Z 19003KT 10SM BKN008 24/23 A2990 RMK AO2 SLP124 T02440228 50002
KIAH 250820Z 20003KT 10SM BKN008 24/23 A2990 RMK AO2 T02440228
KIAH 250753Z 18004KT 10SM BKN010 24/22 A2991 RMK AO2 SLP128 BKN V SCT T02390222
KIAH 250653Z 00000KT 10SM FEW008 BKN016 23/22 A2991 RMK AO2 SLP128 T02330217
KIAH 250628Z 00000KT 10SM FEW009 BKN015 24/22 A2991 RMK AO2 T02440222
KIAH 250553Z 00000KT 10SM BKN010 24/22 A2990 RMK AO2 SLP123 T02390217 10267 20233 403110189 53006
KIAH 250453Z 17003KT 10SM SCT011 24/22 A2989 RMK AO2 SLP120 T02440217
KIAH 250353Z 18005KT 10SM FEW040 FEW250 24/22 A2988 RMK AO2 SLP119 T02440217
KIAH 250253Z 16003KT 10SM FEW042 SCT250 24/22 A2988 RMK AO2 SLP117 T02440222 53019
KIAH 250153Z 14006KT 10SM FEW060 SCT250 25/22 A2986 RMK AO2 SLP109 T02500222
KIAH 250053Z 14011KT 10SM FEW060 SCT250 26/22 A2983 RMK AO2 SLP101 T02560217
KIAH 242353Z 13010KT 10SM FEW055 SCT250 27/22 A2982 RMK AO2 SLP098 T02670217 10311 20267 53005
KIAH 242253Z 14009KT 10SM SCT055 SCT250 29/22 A2981 RMK AO2 SLP094 T02890222
KIAH 242153Z 15008KT 10SM SCT044 SCT060 31/22 A2981 RMK AO2 SLP093 T03060217
KIAH 242053Z 13004KT 10SM SCT036 SCT042 30/22 A2981 RMK AO2 SLP093 T03000217 56021
KIAH 241953Z 16008KT 10SM SCT031 BKN060 BKN250 29/21 A2982 RMK AO2 SLP098 T02940211
KIAH 241853Z 16006KT 10SM SCT030 BKN065 BKN250 31/22 A2984 RMK AO2 SLP105 T03060222
KIAH 241753Z 14006KT 10SM SCT027 BKN065 BKN250 29/22 A2987 RMK AO2 SLP114 T02890222 10294 20206 58008
KIAH 241653Z 12006KT 10SM SCT025 BKN065 BKN250 28/22 A2989 RMK AO2 SLP122 T02830217
KIAH 241553Z 15010KT 10SM FEW018 SCT045 BKN250 28/22 A2990 RMK AO2 SLP126 T02780217
KIAH 241453Z 15010KT 10SM FEW025 SCT050 BKN250 26/22 A2989 RMK AO2 SLP122 T02560222 53012
KIAH 241353Z 10004KT 10SM FEW025 FEW045 SCT065 SCT250 24/22 A2987 RMK AO2 SLP115 T02440222
KIAH 241253Z 11007KT 10SM FEW020 SCT048 SCT065 22/20 A2986 RMK AO2 SLP110 T02170200
KIAH 241153Z 10007KT 10SM FEW020 BKN047 21/19 A2986 RMK AO2 SLP111 70001 T02060194 10211 20189 55004
KIAH 241053Z 11004KT 10SM BKN050 20/18 A2985 RMK AO2 SLP107 T02000183